Time;durP1;ratioP1;P1;durP2;ratioP2;P2;SDS_P1;SDS_P2;PMS_P1;PMS_P2;Temp;Humidity;BMP_temperature;BMP_pressure;BME280_temperature;BME280_humidity;BME280_pressure;Samples;Min_cycle;Max_cycle;Signal;HPM_P1;HPM_P2
2021/11/19 00:02:44;;;;;;;76.15;33.28;;;8.90;99.90;;;;;;12244314;28;20043;-89
2021/11/19 00:08:47;;;;;;;70.78;32.28;;;8.90;99.90;;;;;;12249136;28;20047;-89
2021/11/19 00:14:49;;;;;;;70.82;33.15;;;8.90;99.90;;;;;;12247929;28;20047;-89
2021/11/19 00:20:52;;;;;;;89.57;35.25;;;8.90;99.90;;;;;;12243980;28;20043;-88
2021/11/19 00:26:54;;;;;;;78.38;33.15;;;9.00;99.90;;;;;;12261008;28;20787;-86
2021/11/19 00:32:56;;;;;;;88.35;33.88;;;9.10;99.90;;;;;;12245836;28;20055;-88
2021/11/19 00:39:02;;;;;;;78.63;33.38;;;9.10;99.90;;;;;;12250027;28;20105;-88
2021/11/19 00:45:05;;;;;;;72.43;31.95;;;9.10;99.90;;;;;;12260549;28;20050;-87
2021/11/19 00:51:13;;;;;;;85.50;34.35;;;9.20;99.90;;;;;;12239675;28;20135;-88
2021/11/19 00:57:16;;;;;;;77.45;35.25;;;9.20;99.90;;;;;;12254873;28;20055;-87
2021/11/19 01:03:21;;;;;;;78.28;35.33;;;9.30;99.90;;;;;;12245221;28;20571;-88
2021/11/19 01:09:31;;;;;;;80.90;34.58;;;9.20;99.90;;;;;;12245701;28;20057;-89
2021/11/19 01:15:46;;;;;;;90.18;36.30;;;9.20;99.90;;;;;;12260459;28;20073;-89
2021/11/19 01:21:53;;;;;;;78.75;35.15;;;9.20;99.90;;;;;;12251867;28;20046;-87
2021/11/19 01:27:56;;;;;;;82.28;35.30;;;9.20;99.90;;;;;;12249903;28;20047;-89
2021/11/19 01:33:58;;;;;;;82.78;38.28;;;9.20;99.90;;;;;;12245451;28;20690;-88
2021/11/19 01:40:01;;;;;;;74.63;36.22;;;9.20;99.90;;;;;;12252291;28;20055;-88
2021/11/19 01:46:10;;;;;;;87.93;37.33;;;9.20;99.90;;;;;;12254817;28;20142;-88
2021/11/19 01:52:15;;;;;;;92.05;39.17;;;9.10;99.90;;;;;;12252412;28;20078;-88
2021/11/19 01:58:28;;;;;;;83.03;36.30;;;9.20;99.90;;;;;;12239728;28;20078;-87
2021/11/19 02:04:35;;;;;;;83.95;38.25;;;9.20;99.90;;;;;;12241120;28;20429;-90
2021/11/19 02:11:29;;;;;;;86.20;37.95;;;9.20;99.90;;;;;;12237437;28;20055;-89
2021/11/19 02:17:31;;;;;;;86.05;36.33;;;9.20;99.90;;;;;;12228741;28;20102;-88
2021/11/19 02:24:02;;;;;;;80.45;35.42;;;9.30;99.90;;;;;;12247711;28;20055;-87
2021/11/19 02:30:21;;;;;;;78.78;35.33;;;9.30;99.90;;;;;;12236996;28;20047;-88
2021/11/19 02:36:56;;;;;;;80.32;36.45;;;9.30;99.90;;;;;;12249228;28;20090;-87
2021/11/19 02:43:09;;;;;;;81.45;35.72;;;9.30;99.90;;;;;;12240019;28;20451;-88
2021/11/19 02:49:12;;;;;;;76.05;34.65;;;9.30;99.90;;;;;;12292241;28;20082;-88
2021/11/19 02:55:24;;;;;;;77.20;34.38;;;9.30;99.90;;;;;;12245510;28;20050;-88
2021/11/19 03:01:37;;;;;;;72.43;34.53;;;9.30;99.90;;;;;;12234386;28;20147;-88
2021/11/19 03:07:39;;;;;;;71.70;32.70;;;9.40;99.90;;;;;;12265095;28;20051;-88
2021/11/19 03:13:42;;;;;;;72.97;33.08;;;9.40;99.90;;;;;;12251267;28;20261;-89
2021/11/19 03:19:45;;;;;;;70.65;32.83;;;9.40;99.90;;;;;;12245324;28;20067;-87
2021/11/19 03:25:48;;;;;;;82.75;33.70;;;9.50;99.90;;;;;;12250562;28;20054;-88
2021/11/19 03:31:51;;;;;;;80.03;34.40;;;9.50;99.90;;;;;;12267462;28;20150;-89
2021/11/19 03:37:55;;;;;;;86.93;35.03;;;9.50;99.90;;;;;;12255578;28;20063;-87
2021/11/19 03:44:08;;;;;;;86.27;36.93;;;9.50;99.90;;;;;;12265349;28;20043;-88
2021/11/19 03:50:19;;;;;;;93.50;37.45;;;9.50;99.90;;;;;;12262530;28;20062;-87
2021/11/19 03:56:22;;;;;;;91.82;38.28;;;9.50;99.90;;;;;;12246500;28;20098;-86
2021/11/19 04:02:27;;;;;;;94.70;38.83;;;9.60;99.90;;;;;;12249056;28;20055;-88
2021/11/19 04:08:29;;;;;;;93.97;39.45;;;9.60;99.90;;;;;;12264657;28;20121;-88
2021/11/19 04:14:32;;;;;;;92.13;40.83;;;9.70;99.90;;;;;;12249601;28;20454;-88
2021/11/19 04:20:34;;;;;;;92.88;38.03;;;9.60;99.90;;;;;;12266634;28;20567;-87
2021/11/19 04:26:37;;;;;;;84.10;38.80;;;9.70;99.90;;;;;;12269805;28;20149;-88
2021/11/19 04:32:38;;;;;;;90.93;40.58;;;9.70;99.90;;;;;;12253576;28;20125;-88
2021/11/19 04:38:41;;;;;;;98.25;40.92;;;9.80;99.90;;;;;;12259943;28;20075;-88
2021/11/19 04:44:43;;;;;;;97.97;40.28;;;9.70;99.90;;;;;;12276393;28;20359;-87
2021/11/19 04:50:48;;;;;;;89.25;38.83;;;9.70;99.90;;;;;;12285475;28;20054;-88
2021/11/19 04:56:52;;;;;;;87.28;38.60;;;9.70;99.90;;;;;;12260527;28;20067;-87
2021/11/19 05:02:55;;;;;;;80.93;38.00;;;9.70;99.90;;;;;;12249563;28;20086;-89
2021/11/19 05:08:57;;;;;;;90.45;37.30;;;9.80;99.90;;;;;;12264393;28;20090;-89
2021/11/19 05:14:58;;;;;;;72.07;34.15;;;9.80;99.90;;;;;;12250793;28;20158;-88
2021/11/19 05:21:00;;;;;;;71.70;33.17;;;9.90;99.90;;;;;;12250008;28;20042;-88
2021/11/19 05:27:04;;;;;;;68.30;31.38;;;9.90;99.90;;;;;;12266718;28;20066;-88
2021/11/19 05:33:08;;;;;;;63.70;30.40;;;9.90;99.90;;;;;;12247262;28;20035;-87
2021/11/19 05:39:10;;;;;;;59.63;28.80;;;9.90;99.90;;;;;;12249118;28;20082;-87
2021/11/19 05:45:14;;;;;;;50.17;25.42;;;10.00;99.90;;;;;;12244264;28;20101;-87
2021/11/19 05:51:17;;;;;;;57.15;27.13;;;10.00;99.90;;;;;;12240695;28;20053;-87
2021/11/19 05:57:19;;;;;;;46.92;25.73;;;10.00;99.90;;;;;;12262713;28;20137;-87
2021/11/19 06:03:22;;;;;;;53.85;25.35;;;10.10;99.90;;;;;;12257331;28;20051;-86
2021/11/19 06:09:29;;;;;;;44.58;24.30;;;10.00;99.90;;;;;;12247814;28;20168;-88
2021/11/19 06:15:34;;;;;;;43.00;24.17;;;10.00;99.90;;;;;;12247537;28;20448;-88
2021/11/19 06:21:52;;;;;;;44.17;23.52;;;10.00;99.90;;;;;;12248977;28;20043;-88
2021/11/19 06:27:56;;;;;;;42.05;23.38;;;10.00;99.90;;;;;;12247929;28;20047;-88
2021/11/19 06:33:59;;;;;;;43.90;22.80;;;10.00;99.90;;;;;;12238674;28;20379;-87
2021/11/19 06:40:02;;;;;;;36.78;21.48;;;9.90;99.90;;;;;;12253194;28;20339;-87
2021/11/19 06:46:05;;;;;;;41.78;23.77;;;10.00;99.90;;;;;;12257103;28;20472;-88
2021/11/19 06:52:07;;;;;;;40.35;23.77;;;9.90;99.90;;;;;;12247292;28;20054;-88
2021/11/19 06:58:11;;;;;;;38.38;22.75;;;9.90;99.90;;;;;;12244654;28;20044;-88
2021/11/19 07:04:13;;;;;;;45.42;23.67;;;9.90;99.90;;;;;;12253875;28;20114;-89
2021/11/19 07:10:18;;;;;;;42.80;23.77;;;9.80;99.90;;;;;;12255956;28;20167;-88
2021/11/19 07:16:22;;;;;;;40.45;22.88;;;9.80;99.90;;;;;;12258455;28;20392;-87
2021/11/19 07:22:24;;;;;;;45.65;24.58;;;9.80;99.90;;;;;;12256359;28;20062;-87
2021/11/19 07:28:26;;;;;;;41.65;22.58;;;9.80;99.90;;;;;;12248016;28;20085;-88
2021/11/19 07:34:28;;;;;;;45.72;24.77;;;9.80;99.90;;;;;;12250768;28;20105;-88
2021/11/19 07:40:33;;;;;;;41.72;23.63;;;9.80;99.90;;;;;;12250872;28;20047;-88
2021/11/19 07:46:35;;;;;;;42.72;23.58;;;9.80;99.90;;;;;;12254825;28;20113;-89
2021/11/19 07:52:37;;;;;;;43.28;24.35;;;9.80;99.90;;;;;;12251269;28;20054;-87
2021/11/19 07:58:40;;;;;;;43.92;23.77;;;9.80;99.90;;;;;;12269774;28;20110;-87
2021/11/19 08:04:42;;;;;;;44.28;24.85;;;9.80;99.90;;;;;;12265200;28;20085;-88
2021/11/19 08:10:45;;;;;;;44.10;24.40;;;9.80;99.90;;;;;;12250682;28;20047;-88
2021/11/19 08:16:53;;;;;;;43.25;23.10;;;9.80;99.90;;;;;;12268385;28;20058;-87
2021/11/19 08:22:56;;;;;;;41.33;23.17;;;9.80;99.90;;;;;;12267448;28;20055;-88
2021/11/19 08:28:59;;;;;;;39.28;22.65;;;9.90;99.90;;;;;;12267818;28;20097;-87
2021/11/19 08:35:02;;;;;;;42.55;24.48;;;9.90;99.90;;;;;;12268526;28;20039;-87
2021/11/19 08:41:04;;;;;;;37.10;22.63;;;9.90;99.90;;;;;;12263999;28;20050;-87
2021/11/19 08:47:07;;;;;;;39.30;22.58;;;9.90;99.90;;;;;;12256998;28;20078;-89
2021/11/19 08:53:12;;;;;;;34.25;21.38;;;9.90;99.90;;;;;;12257974;28;20044;-87
2021/11/19 08:59:16;;;;;;;35.92;21.70;;;10.00;99.90;;;;;;12259735;28;20489;-86
2021/11/19 09:05:18;;;;;;;34.88;20.95;;;10.10;99.90;;;;;;12243970;28;20057;-88
2021/11/19 09:11:23;;;;;;;35.30;21.38;;;10.20;99.90;;;;;;12254355;28;20137;-88
2021/11/19 09:17:29;;;;;;;34.20;20.55;;;10.20;99.90;;;;;;12264277;28;20054;-87
2021/11/19 09:23:38;;;;;;;34.78;21.33;;;10.30;99.90;;;;;;12261373;28;20822;-88
2021/11/19 09:29:48;;;;;;;34.30;21.30;;;10.30;99.90;;;;;;12261392;28;20500;-88
2021/11/19 09:35:52;;;;;;;34.40;22.65;;;10.40;99.90;;;;;;12243139;28;20460;-88
2021/11/19 09:42:20;;;;;;;31.52;21.17;;;10.40;99.90;;;;;;12238716;28;20093;-87
2021/11/19 09:48:55;;;;;;;35.53;22.23;;;10.50;99.90;;;;;;12253857;28;20048;-88
2021/11/19 09:55:03;;;;;;;35.63;23.02;;;10.50;99.90;;;;;;12264837;28;20051;-87
2021/11/19 10:01:36;;;;;;;34.13;22.83;;;10.50;99.90;;;;;;12241648;28;20333;-88
2021/11/19 10:07:47;;;;;;;37.00;24.10;;;10.60;99.90;;;;;;12257184;28;20051;-87
2021/11/19 10:14:06;;;;;;;38.17;24.17;;;10.60;99.90;;;;;;12238452;28;20074;-89
2021/11/19 10:20:38;;;;;;;39.42;23.55;;;10.60;99.90;;;;;;12253712;28;20063;-87
2021/11/19 10:26:41;;;;;;;41.40;25.27;;;10.70;99.90;;;;;;12259133;28;20940;-88
2021/11/19 10:32:44;;;;;;;37.87;23.40;;;10.70;99.90;;;;;;12252887;28;20162;-89
2021/11/19 10:39:14;;;;;;;41.17;25.65;;;10.70;99.90;;;;;;12254121;28;20058;-89
2021/11/19 10:45:19;;;;;;;39.63;25.05;;;10.80;99.90;;;;;;12243249;28;20055;-88
2021/11/19 10:51:40;;;;;;;37.97;23.38;;;10.80;99.90;;;;;;12235623;28;20454;-89
2021/11/19 10:58:13;;;;;;;40.60;23.65;;;10.70;99.90;;;;;;12257218;28;20109;-89
2021/11/19 11:04:28;;;;;;;44.28;25.77;;;10.80;99.90;;;;;;12241097;28;20087;-87
2021/11/19 11:10:38;;;;;;;39.42;23.92;;;10.80;99.90;;;;;;12243545;28;20062;-88
2021/11/19 11:16:43;;;;;;;41.65;24.83;;;10.80;99.90;;;;;;12258322;28;20051;-88
2021/11/19 11:22:52;;;;;;;35.45;23.13;;;10.70;99.90;;;;;;12264694;28;20062;-89
2021/11/19 11:29:00;;;;;;;37.55;22.77;;;10.80;99.90;;;;;;12247546;28;20051;-88
2021/11/19 11:35:27;;;;;;;37.88;23.42;;;10.80;99.90;;;;;;12247853;28;20062;-89
2021/11/19 11:41:34;;;;;;;40.47;23.50;;;10.80;99.90;;;;;;12257449;28;20047;-89
2021/11/19 11:47:47;;;;;;;38.17;22.60;;;10.90;99.90;;;;;;12255341;28;20463;-88
2021/11/19 11:54:05;;;;;;;40.45;23.02;;;11.00;99.90;;;;;;12259891;28;20603;-88
2021/11/19 12:00:17;;;;;;;36.95;22.73;;;11.00;99.90;;;;;;12247001;28;20055;-88
2021/11/19 12:06:35;;;;;;;34.78;21.85;;;11.10;99.90;;;;;;12250771;28;20524;-90
2021/11/19 12:12:44;;;;;;;38.72;22.30;;;11.20;99.90;;;;;;12248654;28;20054;-89
2021/11/19 12:19:02;;;;;;;39.28;22.35;;;11.20;99.90;;;;;;12266681;28;20059;-89
2021/11/19 12:25:16;;;;;;;35.60;21.27;;;11.20;99.90;;;;;;12243803;28;20042;-89
2021/11/19 12:31:36;;;;;;;35.33;22.13;;;11.30;99.90;;;;;;12249658;28;20467;-89
2021/11/19 12:37:52;;;;;;;37.28;22.60;;;11.40;99.90;;;;;;12248374;28;20576;-87
2021/11/19 12:44:10;;;;;;;40.10;22.60;;;11.30;99.90;;;;;;12241742;28;20066;-88
2021/11/19 12:50:21;;;;;;;36.10;21.80;;;11.20;99.90;;;;;;12248711;28;20054;-89
2021/11/19 12:56:48;;;;;;;35.55;22.17;;;11.30;99.90;;;;;;12249737;28;20158;-87
2021/11/19 13:03:24;;;;;;;34.75;23.17;;;11.20;99.90;;;;;;12205356;28;20055;-90
2021/11/19 13:09:32;;;;;;;37.72;23.48;;;11.10;99.90;;;;;;12251071;28;20050;-88
2021/11/19 13:15:59;;;;;;;37.00;22.80;;;11.10;99.90;;;;;;12242669;28;20551;-89
2021/11/19 13:22:21;;;;;;;40.35;23.80;;;11.20;99.90;;;;;;12251407;28;20140;-88
2021/11/19 13:28:45;;;;;;;35.72;22.05;;;11.20;99.90;;;;;;12241707;28;20154;-89
2021/11/19 13:34:58;;;;;;;33.88;21.30;;;11.10;99.90;;;;;;12251483;28;20578;-88
2021/11/19 13:41:25;;;;;;;35.70;21.48;;;11.20;99.90;;;;;;12248780;28;20051;-89
2021/11/19 13:47:38;;;;;;;30.35;19.42;;;11.00;99.90;;;;;;12260108;28;20059;-89
2021/11/19 13:53:40;;;;;;;29.85;21.08;;;11.10;99.90;;;;;;12246294;28;20135;-89
2021/11/19 13:59:52;;;;;;;33.00;21.80;;;11.20;99.90;;;;;;12266182;28;20466;-89
2021/11/19 14:05:56;;;;;;;35.67;21.55;;;11.10;99.90;;;;;;12243224;28;20057;-89
2021/11/19 14:12:00;;;;;;;35.70;22.08;;;11.10;99.90;;;;;;12253161;28;20079;-88
2021/11/19 14:18:13;;;;;;;37.13;22.90;;;11.00;99.90;;;;;;12239055;28;20535;-88
2021/11/19 14:25:21;;;;;;;34.72;22.52;;;11.00;99.90;;;;;;12249704;28;20043;-88
2021/11/19 14:31:24;;;;;;;37.13;22.75;;;10.90;99.90;;;;;;12176508;28;20063;-89
2021/11/19 14:37:35;;;;;;;34.13;21.55;;;10.80;99.90;;;;;;12216658;28;20254;-89
2021/11/19 14:43:42;;;;;;;36.20;21.40;;;10.90;99.90;;;;;;12236885;28;20109;-89
2021/11/19 14:57:33;;;;;;;29.77;18.17;;;10.90;99.90;;;;;;12255447;28;20785;-88
2021/11/19 15:03:44;;;;;;;26.83;19.30;;;11.00;99.90;;;;;;12162383;28;20115;-89
2021/11/19 15:10:06;;;;;;;31.35;18.98;;;11.00;99.90;;;;;;12247332;28;20059;-89
2021/11/19 15:16:33;;;;;;;28.52;18.33;;;11.00;99.90;;;;;;12272753;28;20546;-88
2021/11/19 15:22:56;;;;;;;25.02;18.58;;;11.00;99.90;;;;;;12240164;28;20486;-89
2021/11/19 15:29:17;;;;;;;26.63;18.23;;;10.90;99.90;;;;;;12261443;28;20047;-90
2021/11/19 15:35:28;;;;;;;26.52;17.58;;;11.00;99.90;;;;;;12264900;28;20047;-89
2021/11/19 15:41:37;;;;;;;26.17;17.98;;;11.10;99.90;;;;;;12250817;28;20098;-89
2021/11/19 15:47:39;;;;;;;26.30;17.85;;;11.20;99.90;;;;;;12266773;28;20071;-89
2021/11/19 15:53:49;;;;;;;28.85;17.13;;;11.10;99.90;;;;;;12247930;28;20055;-89
2021/11/19 16:00:12;;;;;;;27.30;16.60;;;11.10;99.90;;;;;;12253610;28;20051;-89
2021/11/19 16:07:01;;;;;;;21.10;15.02;;;11.10;99.90;;;;;;12249632;28;20085;-90
2021/11/19 16:13:07;;;;;;;20.83;13.07;;;11.20;99.90;;;;;;12233400;28;20055;-90
2021/11/19 16:19:10;;;;;;;20.48;11.43;;;11.20;99.90;;;;;;12262573;28;20055;-88
2021/11/19 16:25:15;;;;;;;23.65;11.52;;;11.20;99.90;;;;;;12244738;28;20426;-88
2021/11/19 16:31:21;;;;;;;20.95;11.48;;;11.20;99.90;;;;;;12246315;28;20053;-89
2021/11/19 16:37:22;;;;;;;18.92;11.05;;;11.10;99.90;;;;;;12266590;28;20653;-90
2021/11/19 16:43:28;;;;;;;18.98;12.77;;;11.10;99.90;;;;;;12246617;28;20416;-90
2021/11/19 16:49:33;;;;;;;20.73;13.27;;;11.00;99.90;;;;;;12259141;28;20055;-89
2021/11/19 16:55:35;;;;;;;;;;;11.00;99.90;;;;;;12248287;28;20486;-89
2021/11/19 17:01:39;;;;;;;25.58;15.18;;;11.10;99.90;;;;;;12246099;28;19976;-91
2021/11/19 17:07:44;;;;;;;18.50;14.35;;;11.10;99.90;;;;;;12266640;28;20093;-89
2021/11/19 17:13:48;;;;;;;25.38;16.13;;;11.10;99.90;;;;;;12278075;28;20522;-89
2021/11/19 17:19:50;;;;;;;22.88;16.33;;;11.10;99.90;;;;;;12292658;28;20083;-90
2021/11/19 17:25:52;;;;;;;24.77;16.52;;;11.00;99.90;;;;;;12264456;28;20138;-89
2021/11/19 17:31:55;;;;;;;28.10;18.80;;;11.00;99.90;;;;;;12263158;28;20102;-90
2021/11/19 17:37:59;;;;;;;30.25;19.27;;;10.90;99.90;;;;;;12256869;28;20130;-89
2021/11/19 17:44:03;;;;;;;32.20;20.33;;;10.80;99.90;;;;;;12249511;28;20218;-90
2021/11/19 17:50:07;;;;;;;34.27;21.23;;;10.80;99.90;;;;;;12248766;28;20130;-90
2021/11/19 17:56:13;;;;;;;33.90;21.95;;;10.60;99.90;;;;;;12249874;28;20310;-90
2021/11/19 18:02:17;;;;;;;37.65;23.48;;;10.50;99.90;;;;;;12262708;28;20077;-88
2021/11/19 18:08:19;;;;;;;35.72;22.83;;;10.50;99.90;;;;;;12249894;28;20091;-89
2021/11/19 18:14:26;;;;;;;34.45;23.15;;;10.50;99.90;;;;;;12252944;28;20058;-89
2021/11/19 18:20:36;;;;;;;34.10;24.27;;;10.40;99.90;;;;;;12248291;28;20114;-90
2021/11/19 18:26:38;;;;;;;35.78;22.88;;;10.20;99.90;;;;;;12249116;28;20059;-88
2021/11/19 18:32:40;;;;;;;36.40;24.25;;;10.20;99.90;;;;;;12252252;28;20118;-90
2021/11/19 18:38:43;;;;;;;35.55;24.30;;;10.20;99.90;;;;;;12251005;28;20516;-89
2021/11/19 18:44:46;;;;;;;33.72;24.60;;;10.20;99.90;;;;;;12263449;28;20800;-87
2021/11/19 18:50:53;;;;;;;40.58;27.20;;;10.30;99.90;;;;;;12252496;28;20074;-89
2021/11/19 18:56:56;;;;;;;40.78;26.75;;;10.40;99.90;;;;;;12262409;28;20077;-89
2021/11/19 19:02:58;;;;;;;42.85;26.85;;;10.50;99.90;;;;;;12276088;28;20066;-89
2021/11/19 19:09:08;;;;;;;39.95;24.80;;;10.50;99.90;;;;;;12259722;28;20381;-89
2021/11/19 19:15:14;;;;;;;34.97;23.48;;;10.40;99.90;;;;;;12263705;28;20047;-89
2021/11/19 19:21:18;;;;;;;40.13;22.20;;;10.30;99.90;;;;;;12252219;28;20054;-89
2021/11/19 19:27:28;;;;;;;31.10;21.77;;;10.20;99.90;;;;;;12246101;28;20118;-88
2021/11/19 19:33:31;;;;;;;33.75;22.90;;;10.10;99.90;;;;;;12245081;28;20139;-88
2021/11/19 19:39:44;;;;;;;37.78;23.00;;;10.00;99.90;;;;;;12247224;28;20055;-89
2021/11/19 19:45:49;;;;;;;38.60;24.88;;;9.90;99.90;;;;;;12250161;28;20092;-89
2021/11/19 19:51:54;;;;;;;37.45;24.83;;;9.90;99.90;;;;;;12249215;28;20047;-90
2021/11/19 19:57:57;;;;;;;38.85;25.17;;;10.00;99.90;;;;;;12259195;28;20105;-89
2021/11/19 20:04:02;;;;;;;42.70;23.85;;;10.10;99.90;;;;;;12252157;28;20106;-89
2021/11/19 20:10:04;;;;;;;;;;;10.30;99.90;;;;;;12262908;28;20063;-88
2021/11/19 20:16:08;;;;;;;36.22;20.83;;;10.40;99.90;;;;;;12249463;28;19930;-88
2021/11/19 20:22:10;;;;;;;26.75;16.45;;;10.40;99.90;;;;;;12267599;28;20043;-89
2021/11/19 20:28:15;;;;;;;21.70;14.20;;;10.60;99.90;;;;;;12265539;28;20051;-88
2021/11/19 20:34:21;;;;;;;18.27;11.82;;;10.60;99.90;;;;;;12267922;28;20062;-88
2021/11/19 20:40:27;;;;;;;20.70;13.00;;;10.80;99.90;;;;;;12248423;28;20143;-89
2021/11/19 20:46:30;;;;;;;21.30;14.45;;;10.60;99.90;;;;;;12251466;28;20490;-89
2021/11/19 20:52:40;;;;;;;23.58;16.80;;;10.60;99.90;;;;;;12260270;28;20677;-89
2021/11/19 20:58:43;;;;;;;23.33;15.60;;;10.60;99.90;;;;;;12263089;28;20097;-87
2021/11/19 21:04:47;;;;;;;26.55;14.43;;;10.60;99.90;;;;;;12265140;28;20055;-88
2021/11/19 21:10:52;;;;;;;19.25;12.73;;;10.70;99.90;;;;;;12277076;28;20135;-88
2021/11/19 21:16:55;;;;;;;16.35;12.27;;;10.70;99.90;;;;;;12277649;28;20054;-89
2021/11/19 21:22:57;;;;;;;18.53;11.73;;;10.80;99.90;;;;;;12256311;28;20152;-89
2021/11/19 21:29:01;;;;;;;23.45;12.07;;;10.80;99.90;;;;;;12249655;28;20055;-89
2021/11/19 21:35:06;;;;;;;20.58;13.75;;;10.80;99.90;;;;;;12251805;28;20047;-89
2021/11/19 21:41:17;;;;;;;24.13;13.30;;;10.80;99.90;;;;;;12248239;28;20047;-90
2021/11/19 21:47:21;;;;;;;20.60;13.65;;;10.70;99.90;;;;;;12265112;28;20527;-88
2021/11/19 21:53:30;;;;;;;23.60;13.02;;;10.70;99.90;;;;;;12243711;28;20047;-87
2021/11/19 21:59:36;;;;;;;16.70;10.80;;;10.80;99.90;;;;;;12263722;28;20492;-88
2021/11/19 22:05:53;;;;;;;14.05;11.25;;;10.70;99.90;;;;;;12248739;28;20158;-88
2021/11/19 22:11:58;;;;;;;17.70;9.98;;;10.80;99.90;;;;;;12257242;28;20113;-89
2021/11/19 22:18:05;;;;;;;13.25;8.77;;;10.70;99.90;;;;;;12250909;28;20500;-87
2021/11/19 22:24:08;;;;;;;13.35;8.15;;;10.70;99.90;;;;;;12262424;28;20055;-90
2021/11/19 22:30:18;;;;;;;10.68;7.88;;;10.80;99.90;;;;;;12247688;28;20151;-89
2021/11/19 22:36:21;;;;;;;11.98;7.60;;;10.80;99.90;;;;;;12263736;28;20460;-88
2021/11/19 22:42:24;;;;;;;12.57;7.18;;;10.80;99.90;;;;;;12265355;28;20138;-88
2021/11/19 22:48:27;;;;;;;10.52;7.50;;;10.70;99.90;;;;;;12263844;28;20165;-88
2021/11/19 22:54:29;;;;;;;14.73;7.77;;;10.60;99.90;;;;;;12239736;28;20055;-88
2021/11/19 23:00:44;;;;;;;10.77;7.53;;;10.70;99.90;;;;;;12242360;28;20055;-88
2021/11/19 23:06:46;;;;;;;;;;;10.70;99.90;;;;;;12257612;28;20051;-88
2021/11/19 23:12:49;;;;;;;12.98;7.65;;;10.80;99.90;;;;;;12249089;28;20559;-89
2021/11/19 23:18:51;;;;;;;14.30;9.02;;;10.60;99.90;;;;;;12262151;28;20676;-88
2021/11/19 23:24:58;;;;;;;12.43;9.05;;;10.70;99.90;;;;;;12240646;28;20055;-88
2021/11/19 23:31:06;;;;;;;12.75;9.48;;;10.70;99.90;;;;;;12250875;28;20131;-89
2021/11/19 23:37:11;;;;;;;15.80;10.07;;;10.70;99.90;;;;;;12257197;28;20426;-88
2021/11/19 23:43:18;;;;;;;14.75;9.73;;;10.60;99.90;;;;;;12262508;28;20051;-88
2021/11/19 23:49:21;;;;;;;17.92;11.40;;;10.60;99.90;;;;;;12267761;28;20622;-88
2021/11/19 23:55:23;;;;;;;15.63;11.25;;;10.50;99.90;;;;;;12258355;28;20118;-88
